Airport View

Enter AWOS ICAO identifier for current METAR.

ex. KFNL

KDYB 022315Z AUTO VRB04G11KT 10SM CLR 26/17 A3010 RMK AO2

2 Jun 2020 23:15

Frequency: 119.575

Phone: 843-821-8403

Other Area AWOS: KMKS - KCHS - KRBW - KJZI

TAF KCHS 021723Z 0218/0318 19011KT P6SM FEW050 SCT250 FM030200 21004KT P6SM FEW250 FM031400 22009KT P6SM FEW050 FEW250